createdAt,value
2023-05-05T00:08:10.068Z,1.33
2023-05-05T00:18:12.243Z,1.58
2023-05-05T00:28:16.333Z,1.30
2023-05-05T00:38:17.900Z,1.50
2023-05-05T00:48:19.522Z,1.30
2023-05-05T00:58:21.110Z,1.20
2023-05-05T01:08:52.045Z,1.40
2023-05-05T01:19:24.841Z,1.45
2023-05-05T01:29:48.165Z,1.30
2023-05-05T01:39:51.952Z,1.77
2023-05-05T01:49:53.637Z,1.70
2023-05-05T01:59:56.102Z,1.48
2023-05-05T02:09:58.246Z,1.60
2023-05-05T02:20:01.005Z,1.50
2023-05-05T02:30:06.607Z,1.30
2023-05-05T02:40:09.139Z,1.70
2023-05-05T02:50:12.161Z,1.38
2023-05-05T03:00:30.776Z,1.40
2023-05-05T03:10:42.056Z,1.42
2023-05-05T03:20:43.906Z,1.45
2023-05-05T03:40:52.230Z,1.60
2023-05-05T03:50:56.660Z,1.35
2023-05-05T04:01:00.789Z,1.80
2023-05-05T04:11:02.728Z,1.70
2023-05-05T04:21:06.588Z,1.43
2023-05-05T04:31:08.387Z,1.58
2023-05-05T04:51:16.982Z,1.75
2023-05-05T05:01:18.704Z,1.55
2023-05-05T05:11:21.383Z,1.58
2023-05-05T05:21:23.032Z,1.88
2023-05-05T05:31:24.922Z,1.88
2023-05-05T05:41:26.764Z,1.77
2023-05-05T05:51:30.252Z,1.55
2023-05-05T06:01:32.032Z,1.50
2023-05-05T06:11:34.985Z,1.90
2023-05-05T06:21:37.055Z,2.38
2023-05-05T06:31:38.698Z,1.92
2023-05-05T06:41:40.246Z,2.15
2023-05-05T06:51:42.857Z,2.03
2023-05-05T07:01:44.577Z,2.60
2023-05-05T07:11:46.390Z,2.60
2023-05-05T07:21:47.943Z,2.50
2023-05-05T07:31:49.490Z,2.30
2023-05-05T07:41:51.358Z,2.38
2023-05-05T07:51:53.074Z,2.25
2023-05-05T08:01:55.117Z,2.17
2023-05-05T08:11:56.736Z,2.10
2023-05-05T08:22:00.593Z,2.33
2023-05-05T08:32:02.758Z,1.60
2023-05-05T08:42:04.376Z,1.98
2023-05-05T08:52:08.928Z,1.70
2023-05-05T09:02:11.527Z,1.77
2023-05-05T09:12:13.320Z,2.20
2023-05-05T09:22:14.815Z,2.05
2023-05-05T09:32:18.249Z,2.00
2023-05-05T09:42:19.735Z,2.27
2023-05-05T09:52:21.381Z,2.67
2023-05-05T10:02:31.183Z,2.40
2023-05-05T10:12:35.154Z,2.35
2023-05-05T10:22:37.361Z,2.33
2023-05-05T10:33:00.547Z,2.58
2023-05-05T10:43:10.552Z,2.30
2023-05-05T10:53:26.057Z,1.90
2023-05-05T11:03:27.996Z,1.70
2023-05-05T11:13:29.719Z,1.77
2023-05-05T11:23:31.327Z,1.60
2023-05-05T11:33:34.876Z,1.45
2023-05-05T11:43:36.533Z,1.53
2023-05-05T11:53:42.217Z,1.48
2023-05-05T12:03:45.642Z,1.38
2023-05-05T12:13:47.536Z,1.10
2023-05-05T12:23:49.077Z,1.83
2023-05-05T12:33:50.739Z,1.40
2023-05-05T12:43:57.100Z,1.73
2023-05-05T12:54:12.109Z,1.30
2023-05-05T13:04:14.352Z,1.30
2023-05-05T13:14:16.024Z,1.38
2023-05-05T13:44:23.509Z,0.88
2023-05-05T13:54:25.014Z,0.90
2023-05-05T14:04:26.658Z,0.95
2023-05-05T14:14:28.385Z,1.33
2023-05-05T14:24:29.956Z,0.95
2023-05-05T14:34:31.475Z,1.05
2023-05-05T14:44:33.012Z,1.52
2023-05-05T14:54:34.537Z,1.27
2023-05-05T15:04:36.112Z,1.30
2023-05-05T15:14:38.159Z,1.13
2023-05-05T15:24:39.729Z,1.10
2023-05-05T15:34:41.991Z,0.90
2023-05-05T15:44:43.472Z,0.77
2023-05-05T15:54:45.265Z,1.00
2023-05-05T16:04:46.856Z,0.75
2023-05-05T16:14:48.374Z,0.90
2023-05-05T16:24:49.852Z,0.80
2023-05-05T16:34:51.500Z,0.70
2023-05-05T16:44:53.022Z,1.10
2023-05-05T16:54:55.613Z,0.85
2023-05-05T17:04:57.311Z,0.93
2023-05-05T17:14:59.601Z,0.80
2023-05-05T17:25:01.090Z,0.93
2023-05-05T17:35:02.775Z,0.90
2023-05-05T17:45:04.911Z,0.60
2023-05-05T17:55:07.172Z,0.90
2023-05-05T18:05:10.024Z,1.10
2023-05-05T18:15:12.303Z,0.75
2023-05-05T18:25:14.054Z,0.80
2023-05-05T18:35:15.994Z,1.27
2023-05-05T18:45:17.578Z,1.42
2023-05-05T18:55:19.132Z,1.00
2023-05-05T19:05:20.831Z,0.90
2023-05-05T19:15:22.402Z,0.80
2023-05-05T19:25:23.954Z,0.82
2023-05-05T19:35:25.977Z,0.75
2023-05-05T19:45:27.482Z,1.13
2023-05-05T19:55:29.110Z,0.70
2023-05-05T20:05:32.690Z,0.60
2023-05-05T20:15:34.659Z,0.90
2023-05-05T20:25:36.784Z,0.65
2023-05-05T20:35:38.326Z,0.50
2023-05-05T20:45:39.834Z,0.68
2023-05-05T20:55:41.648Z,0.80
2023-05-05T21:05:43.351Z,0.50
2023-05-05T21:15:44.894Z,0.60
2023-05-05T21:25:46.607Z,0.52
2023-05-05T21:35:49.310Z,0.35
2023-05-05T21:46:01.026Z,0.50
2023-05-05T21:56:02.598Z,0.40
2023-05-05T22:06:04.159Z,0.80
2023-05-05T22:16:06.802Z,1.02
2023-05-05T22:26:09.007Z,1.00
2023-05-05T22:36:11.502Z,0.90
2023-05-05T22:46:15.383Z,0.95
2023-05-05T22:56:16.953Z,1.13
2023-05-05T23:06:18.534Z,0.80
2023-05-05T23:16:20.126Z,0.80
2023-05-05T23:26:21.668Z,0.90
2023-05-05T23:36:23.151Z,1.00
2023-05-05T23:46:24.778Z,0.80
2023-05-05T23:56:26.398Z,0.80
